Terminal Aerodrome Forecast
Issued by NWS

Home | Current Version | Previous Version | Text Only | Print | Product List | Glossary Off
Versions: 1 2 3 4 5 6 7 8 9 10 11 12 13 14 15 16 17 18 19 20 21 22

000
FTUS43 KABR 141700
TAFATY
TAF
KATY 141739Z 1418/1518 34016G22KT P6SM -SHSN BKN050
      TEMPO 1418/1422 3SM -SHSN BKN030
     FM142200 34016G22KT P6SM BKN050
     FM150000 33014KT P6SM SCT050
     FM150400 VRB04KT P6SM SKC
     FM151600 17012KT P6SM SCT150=

USA.gov is the U.S. government's official web portal to all federal, state and local government web resources and services.